createdAt,value
2022-08-08T00:02:03.843Z,15.60
2022-08-08T00:04:38.973Z,15.60
2022-08-08T00:07:21.192Z,15.50
2022-08-08T00:10:01.495Z,15.50
2022-08-08T00:12:34.639Z,15.50
2022-08-08T00:15:13.193Z,15.50
2022-08-08T00:18:03.293Z,15.50
2022-08-08T00:20:39.807Z,15.50
2022-08-08T00:23:11.699Z,15.50
2022-08-08T00:25:50.753Z,15.50
2022-08-08T00:28:35.470Z,15.50
2022-08-08T00:32:15.104Z,15.40
2022-08-08T00:34:39.278Z,15.40
2022-08-08T00:37:47.414Z,15.30
2022-08-08T00:41:11.864Z,15.40
2022-08-08T00:44:04.614Z,15.40
2022-08-08T00:47:23.559Z,15.30
2022-08-08T00:50:48.228Z,15.40
2022-08-08T00:53:43.678Z,15.40
2022-08-08T00:57:04.376Z,15.40
2022-08-08T01:00:04.853Z,15.20
2022-08-08T01:04:01.388Z,15.20
2022-08-08T01:06:39.586Z,15.20
2022-08-08T01:09:41.331Z,15.20
2022-08-08T01:12:53.345Z,15.20
2022-08-08T01:15:57.554Z,15.10
2022-08-08T01:18:53.340Z,15.00
2022-08-08T01:22:10.251Z,15.00
2022-08-08T01:24:54.556Z,15.00
2022-08-08T01:28:04.675Z,14.90
2022-08-08T01:32:13.296Z,15.00
2022-08-08T01:35:01.270Z,15.00
2022-08-08T01:38:24.844Z,14.90
2022-08-08T01:41:06.443Z,14.90
2022-08-08T01:43:50.906Z,14.90
2022-08-08T01:46:41.414Z,14.90
2022-08-08T01:49:23.280Z,14.90
2022-08-08T01:52:58.896Z,14.80
2022-08-08T01:55:27.165Z,14.90
2022-08-08T01:58:38.149Z,14.80
2022-08-08T02:01:18.793Z,14.80
2022-08-08T02:04:04.814Z,14.70
2022-08-08T02:06:53.325Z,14.70
2022-08-08T02:10:02.274Z,14.70
2022-08-08T02:12:32.205Z,14.80
2022-08-08T02:15:11.362Z,14.70
2022-08-08T02:17:54.804Z,14.70
2022-08-08T02:21:02.841Z,14.70
2022-08-08T02:23:31.901Z,14.60
2022-08-08T02:26:10.005Z,14.60
2022-08-08T02:28:54.921Z,14.60
2022-08-08T02:32:00.881Z,14.60
2022-08-08T02:35:11.376Z,14.60
2022-08-08T02:37:58.588Z,14.60
2022-08-08T02:40:39.397Z,14.60
2022-08-08T02:44:43.029Z,14.60
2022-08-08T02:46:43.896Z,14.60
2022-08-08T02:49:51.371Z,14.50
2022-08-08T02:52:51.834Z,14.50
2022-08-08T02:55:37.613Z,14.50
2022-08-08T02:58:44.398Z,14.40
2022-08-08T03:02:09.188Z,14.40
2022-08-08T03:05:45.523Z,14.40
2022-08-08T03:08:51.712Z,14.40
2022-08-08T03:12:15.051Z,14.40
2022-08-08T03:15:58.630Z,14.40
2022-08-08T03:17:59.601Z,14.30
2022-08-08T03:20:51.486Z,14.30
2022-08-08T03:23:54.810Z,14.30
2022-08-08T03:26:27.306Z,14.30
2022-08-08T03:29:03.546Z,14.30
2022-08-08T03:32:06.765Z,14.30
2022-08-08T03:34:40.480Z,14.30
2022-08-08T03:37:58.931Z,14.40
2022-08-08T03:40:04.171Z,14.30
2022-08-08T03:42:34.174Z,14.40
2022-08-08T03:46:04.963Z,14.40
2022-08-08T03:48:04.501Z,14.40
2022-08-08T03:50:43.624Z,14.30
2022-08-08T03:53:24.229Z,14.40
2022-08-08T03:56:10.966Z,14.50
2022-08-08T03:58:59.525Z,14.40
2022-08-08T04:02:15.819Z,14.50
2022-08-08T04:04:30.996Z,14.50
2022-08-08T04:07:01.457Z,14.50
2022-08-08T04:10:00.465Z,14.60
2022-08-08T04:12:27.910Z,14.70
2022-08-08T04:14:57.467Z,14.70
2022-08-08T04:17:46.143Z,14.70
2022-08-08T04:20:14.536Z,14.70
2022-08-08T04:22:42.885Z,14.80
2022-08-08T04:25:15.242Z,14.90
2022-08-08T04:28:34.910Z,15.00
2022-08-08T04:30:39.902Z,15.00
2022-08-08T04:33:15.477Z,15.10
2022-08-08T04:35:51.600Z,15.10
2022-08-08T04:38:22.381Z,15.20
2022-08-08T04:40:54.728Z,15.20
2022-08-08T04:43:32.056Z,15.30
2022-08-08T04:46:18.726Z,15.30
2022-08-08T04:48:49.311Z,15.40
2022-08-08T04:51:28.193Z,15.60
2022-08-08T04:54:38.253Z,15.70
2022-08-08T04:56:56.862Z,15.90
2022-08-08T04:59:30.063Z,16.00
2022-08-08T05:02:01.472Z,16.10
2022-08-08T05:04:30.502Z,16.20
2022-08-08T05:06:58.711Z,16.40
2022-08-08T05:09:26.851Z,16.40
2022-08-08T05:11:57.629Z,16.60
2022-08-08T05:14:30.783Z,16.80
2022-08-08T05:17:08.740Z,17.10
2022-08-08T05:20:11.998Z,17.50
2022-08-08T05:22:33.879Z,17.90
2022-08-08T05:25:03.059Z,18.40
2022-08-08T05:27:33.531Z,19.00
2022-08-08T05:30:13.557Z,19.50
2022-08-08T05:32:47.671Z,20.00
2022-08-08T05:35:23.843Z,20.70
2022-08-08T05:38:01.207Z,21.50
2022-08-08T05:40:38.960Z,22.30
2022-08-08T05:43:38.460Z,22.80
2022-08-08T05:46:08.613Z,23.40
2022-08-08T05:48:42.013Z,23.70
2022-08-08T05:51:15.724Z,23.80
2022-08-08T05:54:25.749Z,23.70
2022-08-08T05:56:47.007Z,23.80
2022-08-08T05:59:52.325Z,24.10
2022-08-08T06:02:34.747Z,24.40
2022-08-08T06:05:24.379Z,25.10
2022-08-08T06:08:02.460Z,25.80
2022-08-08T06:10:34.863Z,26.60
2022-08-08T06:13:09.679Z,27.40
2022-08-08T06:15:51.411Z,27.90
2022-08-08T06:18:28.265Z,28.20
2022-08-08T06:20:58.549Z,28.70
2022-08-08T06:23:52.767Z,29.20
2022-08-08T06:26:38.904Z,29.50
2022-08-08T06:29:10.666Z,29.40
2022-08-08T06:32:10.377Z,28.80
2022-08-08T06:34:56.286Z,28.30
2022-08-08T06:37:40.872Z,27.90
2022-08-08T06:40:16.877Z,28.00
2022-08-08T06:42:53.302Z,28.30
2022-08-08T06:45:25.996Z,28.70
2022-08-08T06:48:00.814Z,29.30
2022-08-08T06:50:38.566Z,29.70
2022-08-08T06:53:13.913Z,30.50
2022-08-08T06:56:00.707Z,31.20
2022-08-08T06:58:33.410Z,31.80
2022-08-08T07:01:52.339Z,32.00
2022-08-08T07:04:37.969Z,32.50
2022-08-08T07:06:58.212Z,33.10
2022-08-08T07:09:45.508Z,33.80
2022-08-08T07:12:35.430Z,34.00
2022-08-08T07:15:11.487Z,34.00
2022-08-08T07:18:36.848Z,34.10
2022-08-08T07:20:55.252Z,33.60
2022-08-08T07:24:01.565Z,33.20
2022-08-08T07:26:29.072Z,33.00
2022-08-08T07:29:08.192Z,32.40
2022-08-08T07:31:43.664Z,32.30
2022-08-08T07:34:20.430Z,32.30
2022-08-08T07:37:11.961Z,32.20
2022-08-08T07:39:57.870Z,32.20
2022-08-08T07:42:34.527Z,31.70
2022-08-08T07:45:07.923Z,31.10
2022-08-08T07:47:41.255Z,30.90
2022-08-08T07:50:23.463Z,31.30
2022-08-08T07:52:57.418Z,31.90
2022-08-08T07:55:29.747Z,32.50
2022-08-08T07:58:17.394Z,33.40
2022-08-08T08:00:51.388Z,34.20
2022-08-08T08:03:31.162Z,34.60
2022-08-08T08:06:14.820Z,35.40
2022-08-08T08:08:50.469Z,36.50
2022-08-08T08:11:33.718Z,37.10
2022-08-08T08:14:19.448Z,37.40
2022-08-08T08:16:50.815Z,37.10
2022-08-08T08:19:22.983Z,37.30
2022-08-08T08:21:57.044Z,37.70
2022-08-08T08:24:37.553Z,37.60
2022-08-08T08:27:09.502Z,38.00
2022-08-08T08:29:42.412Z,38.50
2022-08-08T08:32:14.171Z,38.90
2022-08-08T08:35:00.794Z,39.10
2022-08-08T08:37:32.316Z,39.20
2022-08-08T08:40:03.133Z,39.50
2022-08-08T08:42:39.363Z,39.80
2022-08-08T08:45:22.705Z,40.20
2022-08-08T08:47:58.437Z,40.10
2022-08-08T08:50:34.933Z,40.20
2022-08-08T08:53:54.205Z,40.00
2022-08-08T08:56:08.456Z,39.90
2022-08-08T08:58:50.122Z,40.60
2022-08-08T09:01:32.259Z,41.00
2022-08-08T09:04:02.628Z,40.90
2022-08-08T09:06:49.947Z,40.20
2022-08-08T09:09:35.254Z,39.70
2022-08-08T09:12:20.305Z,39.00
2022-08-08T09:14:52.566Z,38.50
2022-08-08T09:17:41.107Z,38.50
2022-08-08T09:21:56.924Z,38.60
2022-08-08T09:23:11.190Z,38.60
2022-08-08T09:25:54.518Z,38.70
2022-08-08T09:28:37.329Z,38.70
2022-08-08T09:31:15.587Z,38.60
2022-08-08T09:34:16.163Z,38.40
2022-08-08T09:36:51.427Z,38.10
2022-08-08T09:39:22.557Z,37.50
2022-08-08T09:42:20.532Z,36.80
2022-08-08T09:45:04.229Z,36.20
2022-08-08T09:48:21.373Z,35.80
2022-08-08T09:50:55.064Z,35.30
2022-08-08T09:54:00.076Z,34.90
2022-08-08T09:56:25.652Z,34.80
2022-08-08T09:59:11.170Z,34.50
2022-08-08T10:01:58.293Z,34.50
2022-08-08T10:04:39.837Z,34.20
2022-08-08T10:07:13.925Z,33.80
2022-08-08T10:10:00.149Z,33.40
2022-08-08T10:12:53.071Z,32.90
2022-08-08T10:15:24.333Z,32.30
2022-08-08T10:18:03.621Z,31.70
2022-08-08T10:20:57.646Z,31.20
2022-08-08T10:23:44.173Z,31.00
2022-08-08T10:26:30.813Z,31.10
2022-08-08T10:29:12.865Z,31.30
2022-08-08T10:32:30.498Z,31.40
2022-08-08T10:35:01.438Z,31.50
2022-08-08T10:37:34.442Z,31.60
2022-08-08T10:40:06.889Z,31.80
2022-08-08T10:42:37.368Z,31.90
2022-08-08T10:45:09.269Z,32.10
2022-08-08T10:47:43.738Z,32.20
2022-08-08T10:50:15.782Z,32.20
2022-08-08T10:52:45.456Z,32.40
2022-08-08T10:55:39.437Z,32.60
2022-08-08T10:58:07.127Z,33.00
2022-08-08T11:00:53.427Z,33.20
2022-08-08T11:03:36.854Z,33.20
2022-08-08T11:06:14.095Z,33.20
2022-08-08T11:08:53.312Z,33.00
2022-08-08T11:11:31.943Z,33.10
2022-08-08T11:14:16.045Z,32.90
2022-08-08T11:16:47.143Z,32.80
2022-08-08T11:19:17.303Z,32.70
2022-08-08T11:21:55.762Z,32.60
2022-08-08T11:24:29.116Z,32.70
2022-08-08T11:27:19.318Z,32.80
2022-08-08T11:30:04.108Z,32.80
2022-08-08T11:32:41.313Z,32.80
2022-08-08T11:35:24.938Z,32.70
2022-08-08T11:38:35.529Z,32.70
2022-08-08T11:40:52.559Z,32.70
2022-08-08T11:43:23.668Z,32.70
2022-08-08T11:46:13.480Z,32.70
2022-08-08T11:48:44.926Z,32.80
2022-08-08T11:51:30.145Z,32.70
2022-08-08T11:54:05.047Z,32.60
2022-08-08T11:56:56.680Z,32.40
2022-08-08T11:59:57.751Z,32.20
2022-08-08T12:02:32.390Z,31.70
2022-08-08T12:05:02.976Z,31.40
2022-08-08T12:07:31.919Z,31.30
2022-08-08T12:10:11.904Z,31.30
2022-08-08T12:12:47.941Z,31.30
2022-08-08T12:15:27.810Z,31.30
2022-08-08T12:17:56.099Z,31.20
2022-08-08T12:20:24.573Z,31.10
2022-08-08T12:22:54.051Z,31.00
2022-08-08T12:25:30.104Z,30.90
2022-08-08T12:28:15.334Z,30.90
2022-08-08T12:30:49.963Z,30.90
2022-08-08T12:33:19.850Z,30.90
2022-08-08T12:35:51.951Z,30.90
2022-08-08T12:38:30.334Z,30.80
2022-08-08T12:41:10.576Z,30.70
2022-08-08T12:44:00.789Z,30.50
2022-08-08T12:46:30.609Z,30.30
2022-08-08T12:51:58.569Z,29.90
2022-08-08T12:54:35.927Z,29.50
2022-08-08T12:57:17.244Z,29.30
2022-08-08T13:00:06.343Z,29.10
2022-08-08T13:02:51.412Z,28.80
2022-08-08T13:05:26.680Z,28.50
2022-08-08T13:08:16.690Z,28.30
2022-08-08T13:10:57.300Z,28.10
2022-08-08T13:13:34.700Z,27.90
2022-08-08T13:16:20.904Z,27.70
2022-08-08T13:18:58.261Z,27.50
2022-08-08T13:21:49.155Z,27.50
2022-08-08T13:24:18.719Z,27.60
2022-08-08T13:27:11.656Z,27.60
2022-08-08T13:29:51.200Z,27.70
2022-08-08T13:32:23.735Z,27.80
2022-08-08T13:34:55.355Z,27.80
2022-08-08T13:37:27.913Z,28.00
2022-08-08T13:40:17.619Z,28.10
2022-08-08T13:42:54.648Z,28.20
2022-08-08T13:45:24.065Z,28.40
2022-08-08T13:47:58.973Z,28.40
2022-08-08T13:50:43.921Z,28.50
2022-08-08T13:53:26.940Z,28.60
2022-08-08T13:56:01.271Z,28.60
2022-08-08T13:58:30.591Z,28.60
2022-08-08T14:00:58.983Z,28.60
2022-08-08T14:03:52.914Z,28.50
2022-08-08T14:06:32.690Z,28.50
2022-08-08T14:09:18.376Z,28.30
2022-08-08T14:11:50.147Z,28.30
2022-08-08T14:14:21.147Z,28.20
2022-08-08T14:16:55.711Z,28.20
2022-08-08T14:19:57.930Z,28.20
2022-08-08T14:22:28.237Z,28.20
2022-08-08T14:25:02.491Z,28.20
2022-08-08T14:27:37.710Z,28.20
2022-08-08T14:30:18.353Z,28.20
2022-08-08T14:32:53.056Z,28.20
2022-08-08T14:35:35.489Z,28.40
2022-08-08T14:38:34.105Z,28.40
2022-08-08T14:40:59.582Z,28.40
2022-08-08T14:44:02.294Z,28.60
2022-08-08T14:46:22.299Z,28.70
2022-08-08T14:49:02.611Z,28.80
2022-08-08T14:51:52.306Z,28.70
2022-08-08T14:54:28.618Z,28.50
2022-08-08T14:57:04.010Z,28.50
2022-08-08T14:59:44.377Z,28.60
2022-08-08T15:02:25.572Z,28.60
2022-08-08T15:05:10.731Z,28.60
2022-08-08T15:07:41.612Z,28.70
2022-08-08T15:10:13.095Z,28.40
2022-08-08T15:12:41.847Z,28.30
2022-08-08T15:15:10.886Z,28.40
2022-08-08T15:17:50.307Z,28.60
2022-08-08T15:20:19.305Z,28.70
2022-08-08T15:22:48.828Z,28.70
2022-08-08T15:25:29.257Z,28.50
2022-08-08T15:28:05.009Z,28.60
2022-08-08T15:30:49.333Z,28.60
2022-08-08T15:33:38.638Z,28.60
2022-08-08T15:36:12.661Z,28.60
2022-08-08T15:38:52.840Z,28.40
2022-08-08T15:41:24.467Z,28.40
2022-08-08T15:44:00.561Z,28.20
2022-08-08T15:46:35.299Z,28.10
2022-08-08T15:49:04.431Z,28.00
2022-08-08T15:51:33.611Z,28.10
2022-08-08T15:54:04.303Z,28.10
2022-08-08T15:56:37.127Z,28.20
2022-08-08T15:59:06.495Z,28.20
2022-08-08T16:01:40.766Z,27.90
2022-08-08T16:04:29.498Z,27.90
2022-08-08T16:06:59.512Z,27.80
2022-08-08T16:13:10.887Z,27.80
2022-08-08T16:13:15.606Z,27.90
2022-08-08T16:15:08.210Z,27.80
2022-08-08T16:17:58.199Z,27.80
2022-08-08T16:20:24.513Z,27.70
2022-08-08T16:22:57.324Z,27.70
2022-08-08T16:25:29.937Z,27.40
2022-08-08T16:28:22.725Z,27.20
2022-08-08T16:30:51.219Z,27.00
2022-08-08T16:33:20.139Z,26.90
2022-08-08T16:36:09.061Z,26.80
2022-08-08T16:38:40.732Z,26.60
2022-08-08T16:41:20.465Z,26.50
2022-08-08T16:43:51.771Z,26.30
2022-08-08T16:46:37.542Z,26.20
2022-08-08T16:49:09.405Z,26.10
2022-08-08T16:55:06.465Z,25.90
2022-08-08T16:55:06.470Z,25.90
2022-08-08T16:57:23.610Z,25.90
2022-08-08T17:00:09.864Z,25.90
2022-08-08T17:02:39.967Z,25.80
2022-08-08T17:05:12.956Z,25.70
2022-08-08T17:07:42.342Z,25.70
2022-08-08T17:10:11.619Z,25.60
2022-08-08T17:12:52.859Z,25.50
2022-08-08T17:15:23.182Z,25.40
2022-08-08T17:18:03.209Z,25.30
2022-08-08T17:20:33.057Z,25.20
2022-08-08T17:23:17.871Z,25.10
2022-08-08T17:25:56.892Z,24.90
2022-08-08T17:28:35.679Z,24.80
2022-08-08T17:31:44.984Z,24.80
2022-08-08T17:34:53.981Z,24.60
2022-08-08T17:37:01.148Z,24.60
2022-08-08T17:40:04.568Z,24.40
2022-08-08T17:42:20.510Z,24.30
2022-08-08T17:44:52.505Z,24.30
2022-08-08T17:47:23.975Z,24.20
2022-08-08T17:49:53.075Z,24.00
2022-08-08T17:52:30.054Z,23.90
2022-08-08T17:54:58.940Z,23.70
2022-08-08T17:57:28.695Z,23.70
2022-08-08T18:00:13.330Z,23.70
2022-08-08T18:02:52.514Z,23.60
2022-08-08T18:05:48.443Z,23.60
2022-08-08T18:08:24.915Z,23.50
2022-08-08T18:11:08.090Z,23.40
2022-08-08T18:13:41.834Z,23.30
2022-08-08T18:16:12.760Z,23.20
2022-08-08T18:18:53.172Z,23.10
2022-08-08T18:21:35.199Z,23.10
2022-08-08T18:24:18.899Z,23.00
2022-08-08T18:26:54.561Z,23.00
2022-08-08T18:29:33.016Z,23.00
2022-08-08T18:32:05.586Z,23.00
2022-08-08T18:34:36.316Z,23.00
2022-08-08T18:37:08.579Z,22.90
2022-08-08T18:39:41.178Z,22.90
2022-08-08T18:42:14.390Z,22.90
2022-08-08T18:44:55.112Z,22.90
2022-08-08T18:47:27.785Z,22.80
2022-08-08T18:49:57.879Z,22.80
2022-08-08T18:52:27.113Z,22.80
2022-08-08T18:55:00.167Z,22.80
2022-08-08T18:57:42.105Z,22.80
2022-08-08T19:00:15.759Z,22.70
2022-08-08T19:02:56.019Z,22.70
2022-08-08T19:05:34.222Z,22.70
2022-08-08T19:08:25.296Z,22.70
2022-08-08T19:10:58.637Z,22.60
2022-08-08T19:13:52.732Z,22.60
2022-08-08T19:16:19.575Z,22.60
2022-08-08T19:19:00.474Z,22.50
2022-08-08T19:21:47.932Z,22.40
2022-08-08T19:24:42.018Z,22.40
2022-08-08T19:27:07.703Z,22.30
2022-08-08T19:29:42.416Z,22.30
2022-08-08T19:32:19.323Z,22.30
2022-08-08T19:34:51.588Z,22.20
2022-08-08T19:37:42.069Z,22.20
2022-08-08T19:40:14.568Z,22.20
2022-08-08T19:42:45.306Z,22.10
2022-08-08T19:45:14.235Z,22.10
2022-08-08T19:48:01.949Z,22.10
2022-08-08T19:50:33.124Z,22.10
2022-08-08T19:53:01.252Z,22.00
2022-08-08T19:55:34.046Z,22.00
2022-08-08T19:58:02.399Z,22.00
2022-08-08T20:00:35.416Z,22.00
2022-08-08T20:03:14.524Z,22.00
2022-08-08T20:06:15.244Z,22.00
2022-08-08T20:08:48.073Z,22.00
2022-08-08T20:11:18.619Z,21.90
2022-08-08T20:14:12.739Z,21.90
2022-08-08T20:16:40.693Z,21.90
2022-08-08T20:19:09.441Z,21.80
2022-08-08T20:21:39.545Z,21.80
2022-08-08T20:24:08.824Z,21.80
2022-08-08T20:26:41.829Z,21.80
2022-08-08T20:29:16.124Z,21.80
2022-08-08T20:32:07.515Z,21.80
2022-08-08T20:34:32.357Z,21.80
2022-08-08T20:37:03.511Z,21.80
2022-08-08T20:39:38.935Z,21.80
2022-08-08T20:42:20.443Z,21.70
2022-08-08T20:44:58.074Z,21.70
2022-08-08T20:47:26.825Z,21.70
2022-08-08T20:50:04.213Z,21.70
2022-08-08T20:52:34.911Z,21.70
2022-08-08T20:55:16.158Z,21.70
2022-08-08T20:57:51.424Z,21.60
2022-08-08T21:00:21.079Z,21.60
2022-08-08T21:02:54.080Z,21.60
2022-08-08T21:05:23.160Z,21.60
2022-08-08T21:08:33.509Z,21.50
2022-08-08T21:10:41.183Z,21.50
2022-08-08T21:13:09.339Z,21.50
2022-08-08T21:16:04.611Z,21.50
2022-08-08T21:18:27.910Z,21.40
2022-08-08T21:20:56.290Z,21.40
2022-08-08T21:24:02.012Z,21.40
2022-08-08T21:26:26.858Z,21.40
2022-08-08T21:28:55.839Z,21.40
2022-08-08T21:31:58.928Z,21.40
2022-08-08T21:34:18.521Z,21.40
2022-08-08T21:36:51.500Z,21.40
2022-08-08T21:39:23.011Z,21.40
2022-08-08T21:42:11.737Z,21.30
2022-08-08T21:44:58.019Z,21.30
2022-08-08T21:48:20.286Z,21.30
2022-08-08T21:50:15.566Z,21.30
2022-08-08T21:54:33.387Z,21.30
2022-08-08T21:56:20.067Z,21.20
2022-08-08T21:58:21.586Z,21.20
2022-08-08T22:01:00.245Z,21.20
2022-08-08T22:03:32.342Z,21.20
2022-08-08T22:06:02.361Z,21.10
2022-08-08T22:08:41.711Z,21.10
2022-08-08T22:11:50.924Z,21.10
2022-08-08T22:13:59.658Z,21.00
2022-08-08T22:16:28.279Z,21.00
2022-08-08T22:18:56.698Z,21.00
2022-08-08T22:21:24.917Z,21.00
2022-08-08T22:24:02.560Z,20.90
2022-08-08T22:26:33.458Z,20.90
2022-08-08T22:29:59.735Z,20.90
2022-08-08T22:32:09.548Z,20.90
2022-08-08T22:34:40.227Z,21.00
2022-08-08T22:37:14.910Z,21.00
2022-08-08T22:40:00.898Z,21.00
2022-08-08T22:42:31.954Z,21.00
2022-08-08T22:45:03.311Z,21.00
2022-08-08T22:47:37.630Z,20.90
2022-08-08T22:50:09.855Z,20.90
2022-08-08T22:54:15.700Z,20.80
2022-08-08T22:55:59.389Z,20.80
2022-08-08T22:58:32.980Z,20.80
2022-08-08T23:01:26.539Z,20.70
2022-08-08T23:03:53.619Z,20.70
2022-08-08T23:06:23.071Z,20.70
2022-08-08T23:08:55.888Z,20.70
2022-08-08T23:11:31.464Z,20.70
2022-08-08T23:14:18.901Z,20.60
2022-08-08T23:16:57.652Z,20.60
2022-08-08T23:19:32.689Z,20.60
2022-08-08T23:22:04.567Z,20.50
2022-08-08T23:24:36.102Z,20.50
2022-08-08T23:27:05.726Z,20.50
2022-08-08T23:29:35.214Z,20.50
2022-08-08T23:32:04.464Z,20.50
2022-08-08T23:34:33.222Z,20.50
2022-08-08T23:37:02.642Z,20.50
2022-08-08T23:39:41.778Z,20.50
2022-08-08T23:42:17.823Z,20.50
2022-08-08T23:44:52.026Z,20.50
2022-08-08T23:49:01.309Z,20.50
2022-08-08T23:50:14.951Z,20.40
2022-08-08T23:53:05.131Z,20.40
2022-08-08T23:55:41.997Z,20.40
2022-08-08T23:58:32.115Z,20.40
